Torrington, Connecticut
Current Conditions -  °F | °C
As of 12:50 PM on Thursday 23 Oct 2014 (Local Time) from KOXC Reporting Station
Haze Haze  
Wind Chill: 43°   Ceiling: 1100
Heat Index: 48°   Visibility: 4mi
Dew Point: 43°   Wind: 12mph
Humidity: 82%   Direction: 350°N
Pressure: 29.68"   Gusts: 21mph
Location:  41.8°N, 73.09°W
Report Text: KOXC 231650Z 35010G18KT 4SM BR BKN011 OVC018 09/06 A2968
Loading
Personal Weather Stations






























Interactive Weather Map
Tropical Storm Tracking
New forecast layout! Learn more

10-Day Weather Forecast

Advertisements
Track Severe Weather on mobile